sensor_id;sensor_type;location;lat;lon;timestamp;P1;durP1;ratioP1;P2;durP2;ratioP2
11486;SDS011;10510;47.942;9.442;2024-03-25T00:00:59;4.40;;;2.15;;
11486;SDS011;10510;47.942;9.442;2024-03-25T00:02:59;4.57;;;2.00;;
11486;SDS011;10510;47.942;9.442;2024-03-25T00:04:59;6.88;;;1.95;;
11486;SDS011;10510;47.942;9.442;2024-03-25T00:06:59;4.72;;;2.20;;
11486;SDS011;10510;47.942;9.442;2024-03-25T00:09:00;6.13;;;2.08;;
11486;SDS011;10510;47.942;9.442;2024-03-25T00:11:03;4.05;;;1.67;;
11486;SDS011;10510;47.942;9.442;2024-03-25T00:13:03;6.10;;;2.22;;
11486;SDS011;10510;47.942;9.442;2024-03-25T00:15:04;5.32;;;2.35;;
11486;SDS011;10510;47.942;9.442;2024-03-25T00:17:04;6.18;;;1.83;;
11486;SDS011;10510;47.942;9.442;2024-03-25T00:19:05;6.43;;;1.70;;
11486;SDS011;10510;47.942;9.442;2024-03-25T00:21:05;5.18;;;1.85;;
11486;SDS011;10510;47.942;9.442;2024-03-25T00:23:05;6.53;;;2.17;;
11486;SDS011;10510;47.942;9.442;2024-03-25T00:25:07;5.00;;;2.33;;
11486;SDS011;10510;47.942;9.442;2024-03-25T00:27:07;5.38;;;2.00;;
11486;SDS011;10510;47.942;9.442;2024-03-25T00:29:08;4.50;;;2.00;;
11486;SDS011;10510;47.942;9.442;2024-03-25T00:31:08;8.68;;;2.67;;
11486;SDS011;10510;47.942;9.442;2024-03-25T00:33:08;6.05;;;1.98;;
11486;SDS011;10510;47.942;9.442;2024-03-25T00:35:08;4.45;;;1.98;;
11486;SDS011;10510;47.942;9.442;2024-03-25T00:37:09;5.43;;;2.22;;
11486;SDS011;10510;47.942;9.442;2024-03-25T00:39:09;3.58;;;1.73;;
11486;SDS011;10510;47.942;9.442;2024-03-25T00:41:10;5.68;;;1.80;;
11486;SDS011;10510;47.942;9.442;2024-03-25T00:43:10;5.70;;;2.17;;
11486;SDS011;10510;47.942;9.442;2024-03-25T00:45:11;2.42;;;1.40;;
11486;SDS011;10510;47.942;9.442;2024-03-25T00:47:12;3.95;;;1.45;;
11486;SDS011;10510;47.942;9.442;2024-03-25T00:49:12;3.70;;;1.58;;
11486;SDS011;10510;47.942;9.442;2024-03-25T00:51:13;4.35;;;1.92;;
11486;SDS011;10510;47.942;9.442;2024-03-25T00:53:13;1.92;;;1.42;;
11486;SDS011;10510;47.942;9.442;2024-03-25T00:55:13;3.83;;;1.90;;
11486;SDS011;10510;47.942;9.442;2024-03-25T00:57:14;2.72;;;1.45;;
11486;SDS011;10510;47.942;9.442;2024-03-25T00:59:14;5.28;;;1.67;;
11486;SDS011;10510;47.942;9.442;2024-03-25T01:01:15;2.75;;;1.42;;
11486;SDS011;10510;47.942;9.442;2024-03-25T01:03:15;4.05;;;1.75;;
11486;SDS011;10510;47.942;9.442;2024-03-25T01:05:15;3.38;;;1.60;;
11486;SDS011;10510;47.942;9.442;2024-03-25T01:07:16;3.92;;;1.42;;
11486;SDS011;10510;47.942;9.442;2024-03-25T01:09:16;2.83;;;1.48;;
11486;SDS011;10510;47.942;9.442;2024-03-25T01:11:17;4.28;;;1.70;;
11486;SDS011;10510;47.942;9.442;2024-03-25T01:13:17;4.28;;;1.50;;
11486;SDS011;10510;47.942;9.442;2024-03-25T01:15:17;3.38;;;1.67;;
11486;SDS011;10510;47.942;9.442;2024-03-25T01:17:18;7.00;;;1.60;;
11486;SDS011;10510;47.942;9.442;2024-03-25T01:19:18;3.95;;;1.50;;
11486;SDS011;10510;47.942;9.442;2024-03-25T01:21:21;4.45;;;2.15;;
11486;SDS011;10510;47.942;9.442;2024-03-25T01:23:21;4.88;;;1.63;;
11486;SDS011;10510;47.942;9.442;2024-03-25T01:25:21;3.38;;;1.55;;
11486;SDS011;10510;47.942;9.442;2024-03-25T01:27:21;5.50;;;2.00;;
11486;SDS011;10510;47.942;9.442;2024-03-25T01:29:22;2.22;;;1.35;;
11486;SDS011;10510;47.942;9.442;2024-03-25T01:31:22;3.78;;;1.80;;
11486;SDS011;10510;47.942;9.442;2024-03-25T01:33:22;4.65;;;1.70;;
11486;SDS011;10510;47.942;9.442;2024-03-25T01:35:22;3.30;;;1.60;;
11486;SDS011;10510;47.942;9.442;2024-03-25T01:37:23;4.97;;;2.10;;
11486;SDS011;10510;47.942;9.442;2024-03-25T01:39:23;4.10;;;1.70;;
11486;SDS011;10510;47.942;9.442;2024-03-25T01:41:26;4.72;;;1.73;;
11486;SDS011;10510;47.942;9.442;2024-03-25T01:43:28;5.43;;;1.70;;
11486;SDS011;10510;47.942;9.442;2024-03-25T01:45:29;4.03;;;2.00;;
11486;SDS011;10510;47.942;9.442;2024-03-25T01:47:31;6.47;;;1.75;;
11486;SDS011;10510;47.942;9.442;2024-03-25T01:49:33;5.25;;;2.20;;
11486;SDS011;10510;47.942;9.442;2024-03-25T01:51:33;6.18;;;2.33;;
11486;SDS011;10510;47.942;9.442;2024-03-25T01:53:35;5.22;;;2.75;;
11486;SDS011;10510;47.942;9.442;2024-03-25T01:55:35;7.15;;;2.40;;
11486;SDS011;10510;47.942;9.442;2024-03-25T01:57:37;4.78;;;2.28;;
11486;SDS011;10510;47.942;9.442;2024-03-25T01:59:38;8.95;;;3.17;;
11486;SDS011;10510;47.942;9.442;2024-03-25T02:01:39;7.03;;;2.28;;
11486;SDS011;10510;47.942;9.442;2024-03-25T02:03:40;5.75;;;2.15;;
11486;SDS011;10510;47.942;9.442;2024-03-25T02:05:42;7.03;;;2.28;;
11486;SDS011;10510;47.942;9.442;2024-03-25T02:07:43;8.13;;;2.22;;
11486;SDS011;10510;47.942;9.442;2024-03-25T02:09:44;6.82;;;2.85;;
11486;SDS011;10510;47.942;9.442;2024-03-25T02:11:45;7.68;;;2.25;;
11486;SDS011;10510;47.942;9.442;2024-03-25T02:13:45;7.90;;;3.78;;
11486;SDS011;10510;47.942;9.442;2024-03-25T02:15:46;6.13;;;2.67;;
11486;SDS011;10510;47.942;9.442;2024-03-25T02:17:46;4.25;;;2.17;;
11486;SDS011;10510;47.942;9.442;2024-03-25T02:19:47;6.80;;;2.55;;
11486;SDS011;10510;47.942;9.442;2024-03-25T02:21:47;9.07;;;2.90;;
11486;SDS011;10510;47.942;9.442;2024-03-25T02:23:47;8.45;;;2.55;;
11486;SDS011;10510;47.942;9.442;2024-03-25T02:25:50;4.00;;;2.60;;
11486;SDS011;10510;47.942;9.442;2024-03-25T02:27:50;8.70;;;2.80;;
11486;SDS011;10510;47.942;9.442;2024-03-25T02:29:51;6.30;;;2.83;;
11486;SDS011;10510;47.942;9.442;2024-03-25T02:31:51;6.20;;;2.70;;
11486;SDS011;10510;47.942;9.442;2024-03-25T02:33:53;7.18;;;2.40;;
11486;SDS011;10510;47.942;9.442;2024-03-25T02:35:53;5.25;;;2.28;;
11486;SDS011;10510;47.942;9.442;2024-03-25T02:37:54;5.40;;;2.58;;
11486;SDS011;10510;47.942;9.442;2024-03-25T02:39:55;6.45;;;2.75;;
11486;SDS011;10510;47.942;9.442;2024-03-25T02:41:58;6.30;;;2.63;;
11486;SDS011;10510;47.942;9.442;2024-03-25T02:43:59;7.40;;;2.78;;
11486;SDS011;10510;47.942;9.442;2024-03-25T02:45:59;10.88;;;2.78;;
11486;SDS011;10510;47.942;9.442;2024-03-25T02:48:00;6.22;;;2.67;;
11486;SDS011;10510;47.942;9.442;2024-03-25T02:50:00;3.85;;;2.20;;
11486;SDS011;10510;47.942;9.442;2024-03-25T02:52:01;7.50;;;2.35;;
11486;SDS011;10510;47.942;9.442;2024-03-25T02:54:01;4.78;;;2.70;;
11486;SDS011;10510;47.942;9.442;2024-03-25T02:56:01;4.22;;;2.35;;
11486;SDS011;10510;47.942;9.442;2024-03-25T02:58:01;7.13;;;2.95;;
11486;SDS011;10510;47.942;9.442;2024-03-25T03:00:02;6.30;;;2.58;;
11486;SDS011;10510;47.942;9.442;2024-03-25T03:02:03;6.25;;;2.90;;
11486;SDS011;10510;47.942;9.442;2024-03-25T03:04:03;6.47;;;2.50;;
11486;SDS011;10510;47.942;9.442;2024-03-25T03:06:04;4.15;;;2.33;;
11486;SDS011;10510;47.942;9.442;2024-03-25T03:08:04;6.40;;;2.50;;
11486;SDS011;10510;47.942;9.442;2024-03-25T03:10:05;6.10;;;2.70;;
11486;SDS011;10510;47.942;9.442;2024-03-25T03:12:05;7.88;;;2.50;;
11486;SDS011;10510;47.942;9.442;2024-03-25T03:14:06;5.63;;;2.83;;
11486;SDS011;10510;47.942;9.442;2024-03-25T03:16:06;8.10;;;2.50;;
11486;SDS011;10510;47.942;9.442;2024-03-25T03:18:06;7.40;;;2.70;;
11486;SDS011;10510;47.942;9.442;2024-03-25T03:20:07;7.32;;;3.13;;
11486;SDS011;10510;47.942;9.442;2024-03-25T03:22:07;7.75;;;2.58;;
11486;SDS011;10510;47.942;9.442;2024-03-25T03:24:08;4.97;;;2.53;;
11486;SDS011;10510;47.942;9.442;2024-03-25T03:26:08;8.48;;;2.80;;
11486;SDS011;10510;47.942;9.442;2024-03-25T03:28:08;8.82;;;2.75;;
11486;SDS011;10510;47.942;9.442;2024-03-25T03:30:09;4.93;;;2.33;;
11486;SDS011;10510;47.942;9.442;2024-03-25T03:32:10;6.93;;;2.38;;
11486;SDS011;10510;47.942;9.442;2024-03-25T03:34:10;8.35;;;2.67;;
11486;SDS011;10510;47.942;9.442;2024-03-25T03:36:11;6.88;;;2.20;;
11486;SDS011;10510;47.942;9.442;2024-03-25T03:38:11;4.57;;;2.30;;
11486;SDS011;10510;47.942;9.442;2024-03-25T03:40:11;5.38;;;3.20;;
11486;SDS011;10510;47.942;9.442;2024-03-25T03:42:12;5.75;;;2.58;;
11486;SDS011;10510;47.942;9.442;2024-03-25T03:44:12;5.38;;;2.55;;
11486;SDS011;10510;47.942;9.442;2024-03-25T03:46:15;8.38;;;3.50;;
11486;SDS011;10510;47.942;9.442;2024-03-25T03:48:15;7.85;;;3.17;;
11486;SDS011;10510;47.942;9.442;2024-03-25T03:50:15;10.43;;;3.08;;
11486;SDS011;10510;47.942;9.442;2024-03-25T03:52:16;5.95;;;3.22;;
11486;SDS011;10510;47.942;9.442;2024-03-25T03:54:16;6.70;;;2.63;;
11486;SDS011;10510;47.942;9.442;2024-03-25T03:56:16;5.13;;;2.33;;
11486;SDS011;10510;47.942;9.442;2024-03-25T03:58:16;10.25;;;3.15;;
11486;SDS011;10510;47.942;9.442;2024-03-25T04:00:17;7.07;;;2.63;;
11486;SDS011;10510;47.942;9.442;2024-03-25T04:02:18;6.57;;;2.47;;
11486;SDS011;10510;47.942;9.442;2024-03-25T04:04:18;5.03;;;2.67;;
11486;SDS011;10510;47.942;9.442;2024-03-25T04:06:18;7.18;;;2.42;;
11486;SDS011;10510;47.942;9.442;2024-03-25T04:08:19;7.20;;;2.95;;
11486;SDS011;10510;47.942;9.442;2024-03-25T04:10:19;6.70;;;2.53;;
11486;SDS011;10510;47.942;9.442;2024-03-25T04:12:19;6.00;;;2.90;;
11486;SDS011;10510;47.942;9.442;2024-03-25T04:14:19;7.28;;;2.65;;
11486;SDS011;10510;47.942;9.442;2024-03-25T04:16:19;5.30;;;2.50;;
11486;SDS011;10510;47.942;9.442;2024-03-25T04:18:21;7.38;;;2.90;;
11486;SDS011;10510;47.942;9.442;2024-03-25T04:20:21;5.45;;;3.20;;
11486;SDS011;10510;47.942;9.442;2024-03-25T04:22:21;5.90;;;3.03;;
11486;SDS011;10510;47.942;9.442;2024-03-25T04:24:22;5.03;;;2.53;;
11486;SDS011;10510;47.942;9.442;2024-03-25T04:26:22;8.10;;;3.05;;
11486;SDS011;10510;47.942;9.442;2024-03-25T04:28:22;8.18;;;2.90;;
11486;SDS011;10510;47.942;9.442;2024-03-25T04:30:22;5.88;;;2.97;;
11486;SDS011;10510;47.942;9.442;2024-03-25T04:32:23;9.60;;;3.20;;
11486;SDS011;10510;47.942;9.442;2024-03-25T04:34:23;6.10;;;2.50;;
11486;SDS011;10510;47.942;9.442;2024-03-25T04:36:23;8.80;;;3.40;;
11486;SDS011;10510;47.942;9.442;2024-03-25T04:38:23;10.60;;;3.15;;
11486;SDS011;10510;47.942;9.442;2024-03-25T04:40:24;8.95;;;3.60;;
11486;SDS011;10510;47.942;9.442;2024-03-25T04:42:25;5.40;;;3.00;;
11486;SDS011;10510;47.942;9.442;2024-03-25T04:44:25;7.03;;;3.17;;
11486;SDS011;10510;47.942;9.442;2024-03-25T04:46:25;12.60;;;4.18;;
11486;SDS011;10510;47.942;9.442;2024-03-25T04:48:25;6.53;;;3.58;;
11486;SDS011;10510;47.942;9.442;2024-03-25T04:50:26;10.85;;;3.38;;
11486;SDS011;10510;47.942;9.442;2024-03-25T04:52:26;11.32;;;3.25;;
11486;SDS011;10510;47.942;9.442;2024-03-25T04:54:27;8.93;;;3.53;;
11486;SDS011;10510;47.942;9.442;2024-03-25T04:56:27;7.78;;;3.15;;
11486;SDS011;10510;47.942;9.442;2024-03-25T04:58:27;8.02;;;3.58;;
11486;SDS011;10510;47.942;9.442;2024-03-25T05:00:27;8.23;;;3.78;;
11486;SDS011;10510;47.942;9.442;2024-03-25T05:02:28;6.22;;;3.25;;
11486;SDS011;10510;47.942;9.442;2024-03-25T05:04:28;8.05;;;2.70;;
11486;SDS011;10510;47.942;9.442;2024-03-25T05:06:29;6.75;;;2.97;;
11486;SDS011;10510;47.942;9.442;2024-03-25T05:08:29;7.28;;;3.70;;
11486;SDS011;10510;47.942;9.442;2024-03-25T05:10:30;7.63;;;3.28;;
11486;SDS011;10510;47.942;9.442;2024-03-25T05:12:30;7.13;;;3.10;;
11486;SDS011;10510;47.942;9.442;2024-03-25T05:14:30;7.72;;;3.47;;
11486;SDS011;10510;47.942;9.442;2024-03-25T05:16:31;10.43;;;3.50;;
11486;SDS011;10510;47.942;9.442;2024-03-25T05:18:31;8.45;;;4.03;;
11486;SDS011;10510;47.942;9.442;2024-03-25T05:20:31;9.52;;;4.53;;
11486;SDS011;10510;47.942;9.442;2024-03-25T05:22:31;19.65;;;5.30;;
11486;SDS011;10510;47.942;9.442;2024-03-25T05:24:32;12.65;;;6.72;;
11486;SDS011;10510;47.942;9.442;2024-03-25T05:26:32;11.77;;;6.32;;
11486;SDS011;10510;47.942;9.442;2024-03-25T05:28:33;10.90;;;5.45;;
11486;SDS011;10510;47.942;9.442;2024-03-25T05:30:33;10.82;;;5.60;;
11486;SDS011;10510;47.942;9.442;2024-03-25T05:32:33;12.23;;;5.68;;
11486;SDS011;10510;47.942;9.442;2024-03-25T05:34:33;13.52;;;5.47;;
11486;SDS011;10510;47.942;9.442;2024-03-25T05:36:34;8.65;;;4.75;;
11486;SDS011;10510;47.942;9.442;2024-03-25T05:38:34;12.55;;;4.65;;
11486;SDS011;10510;47.942;9.442;2024-03-25T05:40:34;12.63;;;4.55;;
11486;SDS011;10510;47.942;9.442;2024-03-25T05:42:34;6.72;;;3.80;;
11486;SDS011;10510;47.942;9.442;2024-03-25T05:44:35;10.13;;;3.83;;
11486;SDS011;10510;47.942;9.442;2024-03-25T05:46:35;10.35;;;4.05;;
11486;SDS011;10510;47.942;9.442;2024-03-25T05:48:35;6.40;;;3.45;;
11486;SDS011;10510;47.942;9.442;2024-03-25T05:50:36;9.07;;;4.38;;
11486;SDS011;10510;47.942;9.442;2024-03-25T05:52:36;13.18;;;4.45;;
11486;SDS011;10510;47.942;9.442;2024-03-25T05:54:36;10.05;;;3.75;;
11486;SDS011;10510;47.942;9.442;2024-03-25T05:56:36;7.70;;;4.00;;
11486;SDS011;10510;47.942;9.442;2024-03-25T05:58:37;12.38;;;3.97;;
11486;SDS011;10510;47.942;9.442;2024-03-25T06:00:37;9.15;;;4.03;;
11486;SDS011;10510;47.942;9.442;2024-03-25T06:02:37;8.40;;;3.67;;
11486;SDS011;10510;47.942;9.442;2024-03-25T06:04:38;13.60;;;4.10;;
11486;SDS011;10510;47.942;9.442;2024-03-25T06:06:38;16.27;;;3.83;;
11486;SDS011;10510;47.942;9.442;2024-03-25T06:08:38;8.55;;;3.60;;
11486;SDS011;10510;47.942;9.442;2024-03-25T06:10:38;11.18;;;4.85;;
11486;SDS011;10510;47.942;9.442;2024-03-25T06:12:39;10.63;;;4.13;;
11486;SDS011;10510;47.942;9.442;2024-03-25T06:14:39;9.88;;;4.22;;
11486;SDS011;10510;47.942;9.442;2024-03-25T06:16:40;7.10;;;4.05;;
11486;SDS011;10510;47.942;9.442;2024-03-25T06:18:41;7.97;;;3.65;;
11486;SDS011;10510;47.942;9.442;2024-03-25T06:20:41;7.93;;;3.80;;
11486;SDS011;10510;47.942;9.442;2024-03-25T06:22:42;8.35;;;3.75;;
11486;SDS011;10510;47.942;9.442;2024-03-25T06:24:42;9.43;;;3.70;;
11486;SDS011;10510;47.942;9.442;2024-03-25T06:26:43;11.68;;;4.25;;
11486;SDS011;10510;47.942;9.442;2024-03-25T06:28:43;8.75;;;3.90;;
11486;SDS011;10510;47.942;9.442;2024-03-25T06:30:44;11.40;;;4.53;;
11486;SDS011;10510;47.942;9.442;2024-03-25T06:33:03;8.80;;;3.47;;
11486;SDS011;10510;47.942;9.442;2024-03-25T06:35:22;6.57;;;3.15;;
11486;SDS011;10510;47.942;9.442;2024-03-25T06:37:22;7.53;;;3.40;;
11486;SDS011;10510;47.942;9.442;2024-03-25T06:39:23;7.53;;;3.63;;
11486;SDS011;10510;47.942;9.442;2024-03-25T06:41:23;7.15;;;2.92;;
11486;SDS011;10510;47.942;9.442;2024-03-25T06:43:24;10.05;;;3.40;;
11486;SDS011;10510;47.942;9.442;2024-03-25T06:45:25;7.68;;;3.33;;
11486;SDS011;10510;47.942;9.442;2024-03-25T06:47:25;6.60;;;3.38;;
11486;SDS011;10510;47.942;9.442;2024-03-25T06:49:25;10.85;;;3.75;;
11486;SDS011;10510;47.942;9.442;2024-03-25T06:51:25;13.52;;;3.88;;
11486;SDS011;10510;47.942;9.442;2024-03-25T06:53:26;10.75;;;4.22;;
11486;SDS011;10510;47.942;9.442;2024-03-25T06:55:26;17.75;;;6.90;;
11486;SDS011;10510;47.942;9.442;2024-03-25T06:57:28;14.30;;;5.10;;
11486;SDS011;10510;47.942;9.442;2024-03-25T06:59:29;29.55;;;9.55;;
11486;SDS011;10510;47.942;9.442;2024-03-25T07:01:36;10.02;;;4.43;;
11486;SDS011;10510;47.942;9.442;2024-03-25T07:03:36;9.07;;;3.38;;
11486;SDS011;10510;47.942;9.442;2024-03-25T07:05:37;11.73;;;3.78;;
11486;SDS011;10510;47.942;9.442;2024-03-25T07:07:37;17.00;;;4.53;;
11486;SDS011;10510;47.942;9.442;2024-03-25T07:09:37;13.70;;;4.10;;
11486;SDS011;10510;47.942;9.442;2024-03-25T07:11:37;9.90;;;3.30;;
11486;SDS011;10510;47.942;9.442;2024-03-25T07:13:38;9.35;;;3.90;;
11486;SDS011;10510;47.942;9.442;2024-03-25T07:15:38;13.10;;;4.30;;
11486;SDS011;10510;47.942;9.442;2024-03-25T07:17:39;6.65;;;3.33;;
11486;SDS011;10510;47.942;9.442;2024-03-25T07:19:39;8.95;;;3.25;;
11486;SDS011;10510;47.942;9.442;2024-03-25T07:21:39;11.57;;;3.83;;
11486;SDS011;10510;47.942;9.442;2024-03-25T07:23:40;6.30;;;3.40;;
11486;SDS011;10510;47.942;9.442;2024-03-25T07:25:40;10.30;;;4.38;;
11486;SDS011;10510;47.942;9.442;2024-03-25T07:27:41;6.43;;;3.42;;
11486;SDS011;10510;47.942;9.442;2024-03-25T07:29:41;12.23;;;4.05;;
11486;SDS011;10510;47.942;9.442;2024-03-25T07:31:42;8.15;;;3.63;;
11486;SDS011;10510;47.942;9.442;2024-03-25T07:33:42;6.80;;;2.88;;
11486;SDS011;10510;47.942;9.442;2024-03-25T07:35:42;5.10;;;3.22;;
11486;SDS011;10510;47.942;9.442;2024-03-25T07:37:43;6.85;;;3.17;;
11486;SDS011;10510;47.942;9.442;2024-03-25T07:39:45;6.45;;;2.80;;
11486;SDS011;10510;47.942;9.442;2024-03-25T07:41:46;5.28;;;2.58;;
11486;SDS011;10510;47.942;9.442;2024-03-25T07:43:46;4.53;;;2.47;;
11486;SDS011;10510;47.942;9.442;2024-03-25T07:45:46;7.13;;;3.08;;
11486;SDS011;10510;47.942;9.442;2024-03-25T07:47:47;9.02;;;3.40;;
11486;SDS011;10510;47.942;9.442;2024-03-25T07:49:47;7.53;;;3.17;;
11486;SDS011;10510;47.942;9.442;2024-03-25T07:51:47;5.95;;;3.10;;
11486;SDS011;10510;47.942;9.442;2024-03-25T07:53:47;5.55;;;3.15;;
11486;SDS011;10510;47.942;9.442;2024-03-25T07:55:48;4.60;;;2.55;;
11486;SDS011;10510;47.942;9.442;2024-03-25T07:57:48;11.13;;;3.25;;
11486;SDS011;10510;47.942;9.442;2024-03-25T07:59:49;3.40;;;2.13;;
11486;SDS011;10510;47.942;9.442;2024-03-25T08:01:49;5.78;;;2.90;;
11486;SDS011;10510;47.942;9.442;2024-03-25T08:03:49;7.65;;;3.28;;
11486;SDS011;10510;47.942;9.442;2024-03-25T08:05:50;9.50;;;2.80;;
11486;SDS011;10510;47.942;9.442;2024-03-25T08:07:50;7.38;;;3.40;;
11486;SDS011;10510;47.942;9.442;2024-03-25T08:09:50;6.70;;;2.58;;
11486;SDS011;10510;47.942;9.442;2024-03-25T08:11:51;4.28;;;2.58;;
11486;SDS011;10510;47.942;9.442;2024-03-25T08:13:51;6.50;;;2.03;;
11486;SDS011;10510;47.942;9.442;2024-03-25T08:15:51;9.90;;;2.55;;
11486;SDS011;10510;47.942;9.442;2024-03-25T08:17:52;4.07;;;2.00;;
11486;SDS011;10510;47.942;9.442;2024-03-25T08:19:52;3.15;;;2.00;;
11486;SDS011;10510;47.942;9.442;2024-03-25T08:21:52;2.03;;;1.60;;
11486;SDS011;10510;47.942;9.442;2024-03-25T08:23:53;4.97;;;2.10;;
11486;SDS011;10510;47.942;9.442;2024-03-25T08:25:53;7.45;;;2.50;;
11486;SDS011;10510;47.942;9.442;2024-03-25T08:27:53;4.47;;;2.22;;
11486;SDS011;10510;47.942;9.442;2024-03-25T08:29:54;10.93;;;2.53;;
11486;SDS011;10510;47.942;9.442;2024-03-25T08:31:54;4.22;;;2.20;;
11486;SDS011;10510;47.942;9.442;2024-03-25T08:33:54;6.20;;;2.45;;
11486;SDS011;10510;47.942;9.442;2024-03-25T08:35:54;4.68;;;1.90;;
11486;SDS011;10510;47.942;9.442;2024-03-25T08:37:55;6.25;;;2.08;;
11486;SDS011;10510;47.942;9.442;2024-03-25T08:39:55;4.57;;;1.73;;
11486;SDS011;10510;47.942;9.442;2024-03-25T08:41:55;6.40;;;1.88;;
11486;SDS011;10510;47.942;9.442;2024-03-25T08:43:55;3.80;;;1.70;;
11486;SDS011;10510;47.942;9.442;2024-03-25T08:45:56;6.88;;;1.95;;
11486;SDS011;10510;47.942;9.442;2024-03-25T08:47:57;4.57;;;2.20;;
11486;SDS011;10510;47.942;9.442;2024-03-25T08:49:57;4.00;;;1.90;;
11486;SDS011;10510;47.942;9.442;2024-03-25T08:51:57;5.07;;;1.95;;
11486;SDS011;10510;47.942;9.442;2024-03-25T08:53:58;7.10;;;1.85;;
11486;SDS011;10510;47.942;9.442;2024-03-25T08:55:58;4.10;;;1.77;;
11486;SDS011;10510;47.942;9.442;2024-03-25T08:57:58;4.13;;;2.28;;
11486;SDS011;10510;47.942;9.442;2024-03-25T08:59:58;6.07;;;1.70;;
11486;SDS011;10510;47.942;9.442;2024-03-25T09:01:59;7.10;;;1.85;;
11486;SDS011;10510;47.942;9.442;2024-03-25T09:03:59;1.50;;;1.10;;
11486;SDS011;10510;47.942;9.442;2024-03-25T09:05:59;4.90;;;1.52;;
11486;SDS011;10510;47.942;9.442;2024-03-25T09:08:00;4.53;;;1.50;;
11486;SDS011;10510;47.942;9.442;2024-03-25T09:10:01;4.15;;;1.30;;
11486;SDS011;10510;47.942;9.442;2024-03-25T09:12:20;4.97;;;1.38;;
11486;SDS011;10510;47.942;9.442;2024-03-25T09:14:20;4.90;;;1.60;;
11486;SDS011;10510;47.942;9.442;2024-03-25T09:16:20;4.85;;;1.50;;
11486;SDS011;10510;47.942;9.442;2024-03-25T09:18:21;3.15;;;1.25;;
11486;SDS011;10510;47.942;9.442;2024-03-25T09:20:21;3.15;;;1.20;;
11486;SDS011;10510;47.942;9.442;2024-03-25T09:22:21;3.67;;;1.77;;
11486;SDS011;10510;47.942;9.442;2024-03-25T09:24:23;5.88;;;2.15;;
11486;SDS011;10510;47.942;9.442;2024-03-25T09:26:23;4.10;;;1.35;;
11486;SDS011;10510;47.942;9.442;2024-03-25T09:28:24;4.15;;;1.38;;
11486;SDS011;10510;47.942;9.442;2024-03-25T09:30:24;8.70;;;2.00;;
11486;SDS011;10510;47.942;9.442;2024-03-25T09:32:24;3.55;;;1.42;;
11486;SDS011;10510;47.942;9.442;2024-03-25T09:34:26;4.97;;;1.40;;
11486;SDS011;10510;47.942;9.442;2024-03-25T09:36:26;3.97;;;1.50;;
11486;SDS011;10510;47.942;9.442;2024-03-25T09:38:26;3.88;;;1.10;;
11486;SDS011;10510;47.942;9.442;2024-03-25T09:40:26;2.78;;;1.08;;
11486;SDS011;10510;47.942;9.442;2024-03-25T09:42:27;6.38;;;1.42;;
11486;SDS011;10510;47.942;9.442;2024-03-25T09:44:33;5.10;;;1.30;;
11486;SDS011;10510;47.942;9.442;2024-03-25T09:46:34;3.40;;;1.00;;
11486;SDS011;10510;47.942;9.442;2024-03-25T09:48:36;4.72;;;1.10;;
11486;SDS011;10510;47.942;9.442;2024-03-25T09:50:37;7.72;;;1.70;;
11486;SDS011;10510;47.942;9.442;2024-03-25T09:52:39;6.72;;;1.13;;
11486;SDS011;10510;47.942;9.442;2024-03-25T09:54:40;3.20;;;1.20;;
11486;SDS011;10510;47.942;9.442;2024-03-25T09:56:40;4.47;;;1.25;;
11486;SDS011;10510;47.942;9.442;2024-03-25T09:58:41;5.20;;;1.70;;
11486;SDS011;10510;47.942;9.442;2024-03-25T10:00:44;1.77;;;1.02;;
11486;SDS011;10510;47.942;9.442;2024-03-25T10:02:45;2.60;;;1.17;;
11486;SDS011;10510;47.942;9.442;2024-03-25T10:04:46;3.22;;;1.20;;
11486;SDS011;10510;47.942;9.442;2024-03-25T10:06:48;2.60;;;1.20;;
11486;SDS011;10510;47.942;9.442;2024-03-25T10:08:48;2.78;;;1.10;;
11486;SDS011;10510;47.942;9.442;2024-03-25T10:10:54;4.40;;;1.42;;
11486;SDS011;10510;47.942;9.442;2024-03-25T10:12:55;3.83;;;0.93;;
11486;SDS011;10510;47.942;9.442;2024-03-25T10:14:55;3.67;;;1.45;;
11486;SDS011;10510;47.942;9.442;2024-03-25T10:16:57;5.47;;;1.10;;
11486;SDS011;10510;47.942;9.442;2024-03-25T10:18:57;2.88;;;1.15;;
11486;SDS011;10510;47.942;9.442;2024-03-25T10:20:58;2.03;;;1.10;;
11486;SDS011;10510;47.942;9.442;2024-03-25T10:22:58;6.85;;;1.38;;
11486;SDS011;10510;47.942;9.442;2024-03-25T10:24:58;1.73;;;1.30;;
11486;SDS011;10510;47.942;9.442;2024-03-25T10:26:59;2.88;;;1.00;;
11486;SDS011;10510;47.942;9.442;2024-03-25T10:29:02;3.10;;;1.30;;
11486;SDS011;10510;47.942;9.442;2024-03-25T10:31:04;2.30;;;0.80;;
11486;SDS011;10510;47.942;9.442;2024-03-25T10:33:06;2.60;;;1.10;;
11486;SDS011;10510;47.942;9.442;2024-03-25T10:35:07;2.70;;;1.20;;
11486;SDS011;10510;47.942;9.442;2024-03-25T10:37:10;2.95;;;1.20;;
11486;SDS011;10510;47.942;9.442;2024-03-25T10:39:11;2.45;;;1.10;;
11486;SDS011;10510;47.942;9.442;2024-03-25T10:41:16;2.92;;;1.02;;
11486;SDS011;10510;47.942;9.442;2024-03-25T10:43:18;2.95;;;1.05;;
11486;SDS011;10510;47.942;9.442;2024-03-25T10:45:20;4.45;;;1.25;;
11486;SDS011;10510;47.942;9.442;2024-03-25T10:47:24;2.33;;;1.05;;
11486;SDS011;10510;47.942;9.442;2024-03-25T10:49:32;1.67;;;0.75;;
11486;SDS011;10510;47.942;9.442;2024-03-25T10:51:44;4.07;;;1.47;;
11486;SDS011;10510;47.942;9.442;2024-03-25T10:53:45;2.10;;;0.95;;
11486;SDS011;10510;47.942;9.442;2024-03-25T10:55:47;3.50;;;1.05;;
11486;SDS011;10510;47.942;9.442;2024-03-25T10:57:50;2.28;;;0.90;;
11486;SDS011;10510;47.942;9.442;2024-03-25T10:59:51;2.97;;;0.90;;
11486;SDS011;10510;47.942;9.442;2024-03-25T11:01:53;3.13;;;0.85;;
11486;SDS011;10510;47.942;9.442;2024-03-25T11:03:53;2.85;;;1.02;;
11486;SDS011;10510;47.942;9.442;2024-03-25T11:05:54;2.20;;;1.15;;
11486;SDS011;10510;47.942;9.442;2024-03-25T11:07:54;1.23;;;0.77;;
11486;SDS011;10510;47.942;9.442;2024-03-25T11:10:01;4.22;;;1.80;;
11486;SDS011;10510;47.942;9.442;2024-03-25T11:12:05;3.33;;;0.82;;
11486;SDS011;10510;47.942;9.442;2024-03-25T11:14:15;5.28;;;0.90;;
11486;SDS011;10510;47.942;9.442;2024-03-25T11:16:26;2.90;;;1.15;;
11486;SDS011;10510;47.942;9.442;2024-03-25T11:18:29;3.95;;;1.10;;
11486;SDS011;10510;47.942;9.442;2024-03-25T11:20:31;1.58;;;0.90;;
11486;SDS011;10510;47.942;9.442;2024-03-25T11:22:31;1.95;;;0.60;;
11486;SDS011;10510;47.942;9.442;2024-03-25T11:24:32;1.83;;;0.90;;
11486;SDS011;10510;47.942;9.442;2024-03-25T11:26:32;3.35;;;0.82;;
11486;SDS011;10510;47.942;9.442;2024-03-25T11:28:35;6.65;;;2.17;;
11486;SDS011;10510;47.942;9.442;2024-03-25T11:30:36;4.28;;;1.70;;
11486;SDS011;10510;47.942;9.442;2024-03-25T11:34:53;3.63;;;1.30;;
11486;SDS011;10510;47.942;9.442;2024-03-25T11:36:54;3.00;;;1.13;;
11486;SDS011;10510;47.942;9.442;2024-03-25T11:38:57;5.50;;;1.38;;
11486;SDS011;10510;47.942;9.442;2024-03-25T11:40:58;2.05;;;0.93;;
11486;SDS011;10510;47.942;9.442;2024-03-25T11:42:58;2.10;;;0.90;;
11486;SDS011;10510;47.942;9.442;2024-03-25T11:44:59;1.05;;;0.68;;
11486;SDS011;10510;47.942;9.442;2024-03-25T11:47:00;3.03;;;0.90;;
11486;SDS011;10510;47.942;9.442;2024-03-25T11:49:01;2.05;;;1.10;;
11486;SDS011;10510;47.942;9.442;2024-03-25T11:51:03;2.90;;;1.08;;
11486;SDS011;10510;47.942;9.442;2024-03-25T11:53:04;1.48;;;0.75;;
11486;SDS011;10510;47.942;9.442;2024-03-25T11:55:05;2.40;;;0.88;;
11486;SDS011;10510;47.942;9.442;2024-03-25T11:57:05;3.42;;;0.90;;
11486;SDS011;10510;47.942;9.442;2024-03-25T11:59:07;3.13;;;0.90;;
11486;SDS011;10510;47.942;9.442;2024-03-25T12:01:07;2.97;;;1.08;;
11486;SDS011;10510;47.942;9.442;2024-03-25T12:03:10;0.60;;;0.55;;
11486;SDS011;10510;47.942;9.442;2024-03-25T12:05:14;3.42;;;0.80;;
11486;SDS011;10510;47.942;9.442;2024-03-25T12:07:14;4.55;;;2.13;;
11486;SDS011;10510;47.942;9.442;2024-03-25T12:09:15;2.15;;;0.98;;